Maxwell, IA (50161)

11:11 AM CDT on June 03, 2015 (GMT -0500)
Tranquility Base | | Change Station
CLOSE
Current Station
Personal Weather Station
Location: Maxwell, IA
Elevation: 902 ft
Nearby Weather Stations

Elev 902 ft 41.89 °N, 93.40 °W | Updated 14 minutes ago

Mostly Cloudy
Mostly Cloudy
68.7 °F
Feels Like 68.7 °F
N
4.7
Wind Variable Wind from SSE

Today
High -- | Low -- °F
--% Chance of Precip.
Yesterday
High -- | Low -- °F
Precip. -- in
5:40 AM 8:43 PM
Full, 99% visible
Pressure 29.84 in
Visibility 10.0 miles
Clouds Scattered Clouds 1200 ft
Dew Point 64 °F
Humidity 84%
Rainfall 0.10 in
Snow Depth Not available.
UV 7 out of 12
Pollen 6.10 out of 12
Air Quality Not available.
Flu Activity No Activity
METAR KAMW 031553Z AUTO 20010KT 10SM SCT012 21/17 A2986 RMK AO2 SLP105 T02060172

More Conditions Fewer Conditions

Pressure 29.84 in
Visibility 10.0 miles
Clouds Scattered Clouds 1200 ft
Dew Point 64 °F
Humidity 84%
Rainfall 0.10 in
Snow Depth Not available.
UV 7 out of 12
Pollen 6.10 out of 12
Air Quality Not available.
Flu Activity No Activity
METAR KAMW 031553Z AUTO 20010KT 10SM SCT012 21/17 A2986 RMK AO2 SLP105 T02060172

More Conditions Fewer Conditions

10-Day Weather Forecast

×

Almanac

Astronomy

Jun. 03, 2015 Rise Set
Actual Time
Civil Twilight
Nautical Twilight
Astronomical Twilight
Moon
Length of Visible Light
Length of Day
Tomorrow will be .
, % of the Moon is Illuminated

Today's Extremes

State Highs State Lows

Community

WunderPhotos

Upload Photos

1,826,246 photos uploaded!

WunderBlogs® & News

Nearby

Air Quality

  Air Quality AQ Index Pollutant
Not available.

Snow Depth

Station Depth Elevation

Earthquake Activity

City Distance Mag. Time & Date
Minimum magnitude displayed is 2.5.

Coastal Water Temperatures

Place Temperature

Stations

Nearby Weather Stations

Station Location Temp. Windchill Dew Point Humidity Wind Precip. Elev Updated Type